Time;durP1;ratioP1;P1;durP2;ratioP2;P2;SDS_P1;SDS_P2;PMS_P1;PMS_P2;Temp;Humidity;BMP_temperature;BMP_pressure;BME280_temperature;BME280_humidity;BME280_pressure;Samples;Min_cycle;Max_cycle;Signal;HPM_P1;HPM_P2
2021/10/15 00:00:04;;;;;;;6.20;5.80;;;;;;;11.34;78.79;100312.13;10461106;28;20037;-74
2021/10/15 00:05:12;;;;;;;5.38;5.03;;;;;;;11.29;78.26;100315.81;10460895;28;20131;-73
2021/10/15 00:10:14;;;;;;;5.43;5.03;;;;;;;11.26;78.65;100308.00;10460972;28;20041;-74
2021/10/15 00:15:17;;;;;;;5.75;5.35;;;;;;;11.29;78.01;100298.25;10461671;28;20106;-74
2021/10/15 00:20:19;;;;;;;5.47;5.07;;;;;;;11.22;78.74;100301.13;10461150;28;20041;-74
2021/10/15 00:25:21;;;;;;;5.40;5.00;;;;;;;11.27;77.89;100307.09;10460492;28;20044;-73
2021/10/15 00:30:22;;;;;;;5.15;4.80;;;;;;;11.31;77.64;100300.84;10459856;28;20482;-73
2021/10/15 00:35:24;;;;;;;5.97;5.47;;;;;;;11.17;78.64;100309.16;10460363;28;20053;-74
2021/10/15 00:40:26;;;;;;;4.85;4.55;;;;;;;11.25;78.27;100303.66;10460683;28;20075;-73
2021/10/15 00:45:28;;;;;;;5.45;5.03;;;;;;;11.33;77.65;100299.00;10460549;28;20049;-74
2021/10/15 00:50:29;;;;;;;4.85;4.55;;;;;;;11.27;77.75;100292.16;10459958;28;20045;-74
2021/10/15 00:55:31;;;;;;;5.03;4.63;;;;;;;11.16;78.70;100281.13;10460038;28;20048;-74
2021/10/15 01:00:33;;;;;;;5.30;4.90;;;;;;;11.09;79.01;100277.78;10461246;28;20071;-74
2021/10/15 01:05:35;;;;;;;4.82;4.43;;;;;;;11.28;77.73;100264.06;10459273;28;20045;-74
2021/10/15 01:10:37;;;;;;;4.97;4.57;;;;;;;11.17;78.40;100264.41;10458860;28;20037;-74
2021/10/15 01:15:38;;;;;;;5.20;4.80;;;;;;;11.17;78.34;100253.91;10460355;28;20482;-74
2021/10/15 01:20:41;;;;;;;4.40;4.10;;;;;;;11.21;77.93;100236.25;10462036;28;20049;-74
2021/10/15 01:25:43;;;;;;;4.95;4.65;;;;;;;11.14;78.13;100239.97;10457938;28;20551;-73
2021/10/15 01:30:47;;;;;;;5.18;4.68;;;;;;;11.24;77.59;100230.88;10460237;28;20040;-74
2021/10/15 01:35:48;;;;;;;5.18;4.68;;;;;;;11.31;77.07;100230.63;10459271;28;20045;-73
2021/10/15 01:40:50;;;;;;;5.85;5.35;;;;;;;11.23;77.84;100230.00;10463753;28;20556;-74
2021/10/15 01:45:52;;;;;;;5.30;4.82;;;;;;;11.26;77.57;100214.13;10465907;28;20048;-74
2021/10/15 01:50:54;;;;;;;5.22;4.93;;;;;;;11.24;77.68;100215.06;10464991;28;20033;-74
2021/10/15 01:55:56;;;;;;;5.43;5.03;;;;;;;11.16;78.25;100201.34;10466250;28;20405;-75
2021/10/15 02:00:57;;;;;;;6.28;5.78;;;;;;;11.18;77.85;100204.75;10469617;28;20047;-74
2021/10/15 02:05:59;;;;;;;5.97;5.53;;;;;;;11.05;78.65;100191.97;10468590;28;20045;-73
2021/10/15 02:11:01;;;;;;;5.45;5.05;;;;;;;11.09;78.50;100182.22;10465570;28;20415;-73
2021/10/15 02:16:02;;;;;;;5.82;5.32;;;;;;;11.07;78.55;100179.66;10464951;28;20530;-73
2021/10/15 02:21:04;;;;;;;5.30;4.80;;;;;;;11.18;78.28;100179.31;10464578;28;20483;-74
2021/10/15 02:26:06;;;;;;;8.73;6.00;;;;;;;11.10;78.02;100176.91;10466521;28;20053;-74
2021/10/15 02:31:07;;;;;;;6.30;5.80;;;;;;;11.14;78.11;100172.41;10466200;28;20041;-74
2021/10/15 02:36:09;;;;;;;5.50;5.10;;;;;;;11.15;78.65;100170.66;10463916;28;20465;-74
2021/10/15 02:41:10;;;;;;;6.38;5.90;;;;;;;11.17;77.93;100164.44;10463876;28;20041;-74
2021/10/15 02:46:14;;;;;;;6.18;5.68;;;;;;;11.14;78.49;100154.00;10465563;28;20106;-74
2021/10/15 02:51:16;;;;;;;6.00;5.60;;;;;;;11.01;78.62;100140.38;10465062;28;20060;-74
2021/10/15 02:56:20;;;;;;;6.22;5.72;;;;;;;11.07;78.09;100141.97;10464605;28;20047;-75
2021/10/15 03:01:21;;;;;;;6.30;5.70;;;;;;;10.92;78.80;100135.41;10464667;28;20056;-74
2021/10/15 03:06:23;;;;;;;5.82;5.32;;;;;;;11.03;78.60;100132.47;10466628;28;20033;-74
2021/10/15 03:11:25;;;;;;;6.32;5.72;;;;;;;10.99;78.53;100123.78;10463832;28;20439;-74
2021/10/15 03:16:26;;;;;;;6.88;6.18;;;;;;;11.03;77.78;100112.28;10462706;28;20048;-74
2021/10/15 03:21:28;;;;;;;7.57;6.97;;;;;;;11.03;77.32;100116.69;10461165;28;20053;-74
2021/10/15 03:26:31;;;;;;;6.47;5.97;;;;;;;11.06;76.88;100113.91;10462652;28;20071;-74
2021/10/15 03:31:33;;;;;;;6.45;5.95;;;;;;;11.11;76.85;100115.50;10464189;28;20053;-74
2021/10/15 03:36:35;;;;;;;6.45;5.93;;;;;;;11.14;76.44;100118.94;10461844;28;20041;-74
2021/10/15 03:41:38;;;;;;;6.40;5.90;;;;;;;11.20;75.83;100108.22;10476172;22;20041;-74
2021/10/15 03:46:40;;;;;;;5.90;5.50;;;;;;;11.07;76.77;100106.00;10462202;28;20099;-73
2021/10/15 03:51:42;;;;;;;5.82;5.43;;;;;;;11.19;76.31;100114.38;10460539;28;20124;-74
2021/10/15 03:56:43;;;;;;;6.03;5.53;;;;;;;11.18;76.26;100104.78;10461748;28;20044;-73
2021/10/15 04:01:45;;;;;;;6.28;5.78;;;;;;;11.13;75.83;100098.81;10460207;28;20045;-73
2021/10/15 04:06:47;;;;;;;5.82;5.32;;;;;;;11.17;75.64;100093.41;10462369;28;20103;-73
2021/10/15 04:11:49;;;;;;;5.43;5.03;;;;;;;11.29;74.85;100086.88;10461963;28;20116;-74
2021/10/15 04:16:51;;;;;;;5.53;5.13;;;;;;;11.15;75.67;100092.56;10462332;28;20037;-73
2021/10/15 04:21:53;;;;;;;4.68;4.30;;;;;;;11.06;75.83;100080.59;10459839;28;20063;-73
2021/10/15 04:26:54;;;;;;;4.95;4.55;;;;;;;11.17;75.09;100084.66;10460738;28;20120;-74
2021/10/15 04:31:56;;;;;;;4.47;4.13;;;;;;;11.16;75.05;100073.28;10461543;28;20090;-73
2021/10/15 04:36:57;;;;;;;4.85;4.55;;;;;;;11.21;74.23;100063.44;10460522;28;20053;-73
2021/10/15 04:41:59;;;;;;;4.93;4.53;;;;;;;11.34;73.62;100056.84;10459231;28;20457;-73
2021/10/15 04:47:01;;;;;;;5.43;4.90;;;;;;;11.34;73.05;100053.38;10460144;28;20452;-74
2021/10/15 04:52:03;;;;;;;5.05;4.75;;;;;;;11.31;73.27;100045.56;10459013;28;20045;-73
2021/10/15 04:57:06;;;;;;;4.35;4.03;;;;;;;11.20;73.67;100047.69;10460524;28;20102;-74
2021/10/15 05:02:07;;;;;;;4.68;4.28;;;;;;;11.24;73.64;100037.00;10459058;28;20045;-74
2021/10/15 05:07:09;;;;;;;4.13;3.83;;;;;;;11.33;73.43;100041.09;10458159;28;20045;-74
2021/10/15 05:12:14;;;;;;;3.50;3.20;;;;;;;11.41;72.89;100030.31;10457201;28;20049;-74
2021/10/15 05:17:16;;;;;;;4.15;3.78;;;;;;;11.36;73.15;100023.44;10458390;28;20060;-73
2021/10/15 05:22:18;;;;;;;3.83;3.53;;;;;;;11.41;73.00;100025.03;10458330;28;20048;-73
2021/10/15 05:27:20;;;;;;;3.53;3.17;;;;;;;11.34;73.35;100029.69;10440250;28;20052;-73
2021/10/15 05:32:21;;;;;;;2.85;2.63;;;;;;;11.35;72.98;100020.88;10458575;28;20041;-74
2021/10/15 05:37:23;;;;;;;5.35;4.80;;;;;;;11.48;72.30;100024.78;10458492;28;20124;-74
2021/10/15 05:42:25;;;;;;;3.78;2.92;;;;;;;11.55;71.77;100015.75;10458660;28;20498;-73
2021/10/15 05:47:26;;;;;;;4.30;3.42;;;;;;;11.51;71.99;100014.16;10458729;28;20044;-74
2021/10/15 05:52:46;;;;;;;9.15;3.33;;;;;;;11.48;72.53;100018.66;10458837;28;20516;-74
2021/10/15 06:03:00;;;;;;;3.10;2.65;;;;;;;11.51;72.36;100014.16;10457372;28;20552;-74
2021/10/15 06:18:24;;;;;;;3.13;2.92;;;;;;;11.57;73.03;100005.16;10458378;28;20091;-74
2021/10/15 06:23:28;;;;;;;3.28;2.80;;;;;;;11.48;73.80;100010.75;10457546;28;20045;-73
2021/10/15 06:28:30;;;;;;;3.75;3.45;;;;;;;11.42;73.91;100000.44;10464481;28;20482;-73
2021/10/15 06:33:31;;;;;;;7.22;4.10;;;;;;;11.45;74.35;99995.94;10467140;28;20047;-73
2021/10/15 06:38:33;;;;;;;5.03;3.58;;;;;;;11.48;73.98;99990.56;10465374;28;20445;-74
2021/10/15 06:43:34;;;;;;;8.40;3.65;;;;;;;11.48;74.04;99989.72;10465385;28;20105;-75
2021/10/15 06:48:36;;;;;;;3.17;2.92;;;;;;;11.57;74.53;99979.69;10465793;28;20097;-75
2021/10/15 06:53:37;;;;;;;5.15;3.22;;;;;;;11.77;73.41;99976.31;10464161;28;20061;-74
2021/10/15 06:58:39;;;;;;;4.93;2.58;;;;;;;12.10;71.72;99968.94;10463960;28;20052;-74
2021/10/15 07:03:42;;;;;;;7.00;2.17;;;;;;;12.02;72.27;99968.38;10465317;28;20041;-75
2021/10/15 07:08:43;;;;;;;26.45;24.30;;;;;;;12.14;71.52;99967.03;10463523;28;20464;-73
2021/10/15 07:13:45;;;;;;;3.03;2.13;;;;;;;12.26;71.35;99977.13;10465160;28;20107;-75
2021/10/15 07:18:47;;;;;;;1.88;1.77;;;;;;;12.41;71.15;99964.22;10463012;28;20037;-75
2021/10/15 07:23:49;;;;;;;3.40;1.80;;;;;;;12.31;71.26;99971.66;10465276;28;20110;-74
2021/10/15 07:28:51;;;;;;;5.22;1.85;;;;;;;12.47;70.89;99966.59;10462756;28;20098;-73
2021/10/15 07:33:53;;;;;;;3.53;1.52;;;;;;;12.59;70.04;99971.38;10462709;28;20055;-73
2021/10/15 07:38:54;;;;;;;4.10;1.75;;;;;;;12.73;69.59;99968.19;10461230;28;20052;-74
2021/10/15 07:43:56;;;;;;;2.28;1.50;;;;;;;12.80;69.12;99959.09;10463396;28;20048;-74
2021/10/15 07:48:57;;;;;;;4.18;1.02;;;;;;;13.05;68.00;99959.75;10464458;28;20041;-73
2021/10/15 07:53:59;;;;;;;1.60;0.90;;;;;;;13.33;67.10;99954.16;10462561;28;20056;-73
2021/10/15 07:59:01;;;;;;;1.35;0.90;;;;;;;13.43;66.16;99951.13;10460147;28;20041;-74
2021/10/15 08:04:04;;;;;;;1.67;1.10;;;;;;;13.58;65.02;99953.91;10459697;28;20041;-75
2021/10/15 08:09:21;;;;;;;3.05;0.93;;;;;;;13.85;64.29;99945.66;10459931;28;20045;-74
2021/10/15 08:14:26;;;;;;;1.02;0.80;;;;;;;13.98;63.13;99952.06;10458208;28;20037;-74
2021/10/15 08:19:28;;;;;;;4.68;1.40;;;;;;;14.03;63.19;99954.50;10457733;28;20538;-75
2021/10/15 08:24:29;;;;;;;2.75;1.00;;;;;;;13.87;63.36;99951.72;10457805;28;20083;-75
2021/10/15 08:29:31;;;;;;;1.35;0.80;;;;;;;13.79;62.56;99949.44;10459346;28;20154;-75
2021/10/15 08:34:33;;;;;;;2.65;0.90;;;;;;;13.77;62.37;99945.16;10458403;28;20144;-75
2021/10/15 08:39:35;;;;;;;0.93;0.70;;;;;;;13.76;63.46;99944.28;10458890;28;20048;-75
2021/10/15 08:44:45;;;;;;;2.17;1.10;;;;;;;13.87;61.99;99952.59;10457654;28;20064;-75
2021/10/15 08:49:47;;;;;;;2.05;1.05;;;;;;;13.83;62.60;99943.09;10456623;28;20076;-76
2021/10/15 08:54:49;;;;;;;2.80;1.27;;;;;;;14.02;61.19;99935.13;10456451;28;20061;-75
2021/10/15 08:59:51;;;;;;;3.92;1.13;;;;;;;14.24;59.33;99929.69;10457694;28;20571;-75
2021/10/15 09:04:59;;;;;;;2.33;1.17;;;;;;;14.13;59.33;99926.72;10457325;28;20045;-75
2021/10/15 09:10:14;;;;;;;4.93;1.23;;;;;;;14.06;59.23;99922.63;10457053;28;20037;-75
2021/10/15 09:15:16;;;;;;;1.98;1.15;;;;;;;14.23;59.43;99916.56;10455805;28;20049;-76
2021/10/15 09:20:29;;;;;;;1.02;0.82;;;;;;;14.43;59.21;99911.13;10457852;28;20044;-74
2021/10/15 09:25:45;;;;;;;2.08;1.00;;;;;;;14.56;58.12;99912.25;10455652;28;20089;-74
2021/10/15 09:30:49;;;;;;;1.30;0.80;;;;;;;14.74;57.42;99913.16;10455529;28;20044;-74
2021/10/15 09:36:03;;;;;;;1.33;0.93;;;;;;;14.86;56.77;99906.34;10455130;28;20056;-74
2021/10/15 09:41:05;;;;;;;1.70;0.90;;;;;;;14.87;57.69;99910.69;10456379;28;20048;-75
2021/10/15 09:46:21;;;;;;;2.47;1.05;;;;;;;14.92;57.52;99903.41;10473587;22;20453;-70
2021/10/15 09:51:22;;;;;;;1.63;1.00;;;;;;;15.00;55.31;99903.84;10457162;28;20124;-70
2021/10/15 09:56:44;;;;;;;1.52;0.85;;;;;;;15.25;54.55;99892.81;10456026;28;20072;-70
2021/10/15 10:01:47;;;;;;;1.23;0.57;;;;;;;15.53;54.26;99901.94;10460667;28;20066;-70
2021/10/15 10:06:49;;;;;;;1.42;0.70;;;;;;;16.08;53.73;99877.72;10464317;28;20041;-70
2021/10/15 10:11:52;;;;;;;1.98;0.73;;;;;;;15.93;51.55;99882.06;10463670;28;20086;-69
2021/10/15 10:16:56;;;;;;;2.25;0.60;;;;;;;16.24;52.74;99880.31;10463179;28;20115;-69
2021/10/15 10:21:58;;;;;;;1.85;0.63;;;;;;;16.41;51.50;99893.47;10463862;28;20079;-69
2021/10/15 10:27:00;;;;;;;1.75;0.70;;;;;;;16.42;50.46;99871.28;10463730;28;20048;-70
2021/10/15 10:32:16;;;;;;;1.05;0.70;;;;;;;16.19;51.34;99872.63;10463826;28;20041;-69
2021/10/15 10:37:18;;;;;;;2.33;0.50;;;;;;;16.30;50.87;99858.75;10463455;28;20049;-69
2021/10/15 10:42:29;;;;;;;1.83;0.68;;;;;;;16.58;50.83;99855.34;10461637;28;20102;-70
2021/10/15 10:47:31;;;;;;;1.83;0.63;;;;;;;16.58;50.17;99860.66;10468479;28;20115;-70
2021/10/15 10:52:35;;;;;;;1.02;0.50;;;;;;;16.84;50.22;99864.44;10463574;28;20048;-69
2021/10/15 10:57:41;;;;;;;0.98;0.45;;;;;;;16.56;49.71;99859.91;10465640;28;20053;-70
2021/10/15 11:02:49;;;;;;;1.17;0.77;;;;;;;15.92;51.35;99866.25;10465180;28;20049;-70
2021/10/15 11:08:27;;;;;;;2.30;0.63;;;;;;;15.77;52.53;99844.13;10463385;28;20049;-68
2021/10/15 11:13:33;;;;;;;2.70;0.70;;;;;;;15.48;52.37;99841.25;10462660;28;20041;-68
2021/10/15 11:18:37;;;;;;;2.53;0.43;;;;;;;15.60;53.21;99840.59;10464198;28;20071;-69
2021/10/15 11:23:40;;;;;;;0.70;0.57;;;;;;;15.70;53.08;99834.81;10465262;28;20136;-69
2021/10/15 11:28:41;;;;;;;1.77;0.60;;;;;;;15.59;53.25;99832.72;10462043;28;20114;-70
2021/10/15 11:33:45;;;;;;;2.50;0.57;;;;;;;15.67;54.15;99833.19;10461654;28;20041;-70
2021/10/15 11:38:46;;;;;;;0.98;0.75;;;;;;;15.68;53.55;99828.75;10463904;28;20055;-70
2021/10/15 11:43:52;;;;;;;3.43;0.80;;;;;;;16.02;53.65;99836.47;10462672;28;20048;-70
2021/10/15 11:48:54;;;;;;;2.05;0.73;;;;;;;15.64;54.31;99844.81;10462127;28;20053;-70
2021/10/15 11:53:59;;;;;;;2.30;0.80;;;;;;;15.33;53.56;99842.09;10462816;28;20049;-70
2021/10/15 11:59:08;;;;;;;1.50;1.00;;;;;;;15.07;54.34;99836.41;10462591;28;20045;-69
2021/10/15 12:04:12;;;;;;;2.10;0.80;;;;;;;14.93;55.54;99838.94;10461613;28;20041;-69
2021/10/15 12:09:18;;;;;;;1.90;1.00;;;;;;;14.81;55.41;99845.72;10465028;28;20056;-70
2021/10/15 12:14:30;;;;;;;2.17;0.70;;;;;;;14.77;56.79;99848.63;10460629;28;20053;-69
2021/10/15 12:19:37;;;;;;;1.25;0.80;;;;;;;14.88;55.62;99840.97;10461342;28;20048;-70
2021/10/15 12:24:44;;;;;;;;;;;;;;;14.93;55.93;99822.22;10458821;28;20071;-69
2021/10/15 12:29:47;;;;;;;2.35;1.15;;;;;;;14.97;54.95;99821.97;10458535;28;19921;-69
2021/10/15 12:34:50;;;;;;;1.73;1.17;;;;;;;14.86;55.25;99833.09;10458468;28;20057;-69
2021/10/15 12:40:26;;;;;;;3.78;0.95;;;;;;;14.74;55.00;99832.88;10458086;28;20045;-69
2021/10/15 12:45:35;;;;;;;2.15;1.02;;;;;;;14.83;56.27;99829.75;10457213;28;20445;-70
2021/10/15 12:51:03;;;;;;;1.95;1.10;;;;;;;14.81;55.56;99834.28;10458698;28;20479;-69
2021/10/15 12:56:13;;;;;;;1.33;1.00;;;;;;;14.76;56.46;99833.69;10447466;28;20059;-69
2021/10/15 13:01:22;;;;;;;1.95;1.05;;;;;;;14.66;56.25;99833.31;10459157;28;20094;-69
2021/10/15 13:06:24;;;;;;;1.42;1.08;;;;;;;14.64;56.60;99846.59;10459068;28;20533;-70
2021/10/15 13:11:27;;;;;;;1.30;1.05;;;;;;;14.47;57.53;99829.84;10459184;28;20121;-70
2021/10/15 13:16:29;;;;;;;1.15;1.05;;;;;;;14.35;57.63;99824.25;10457697;28;20098;-70
2021/10/15 13:21:31;;;;;;;1.60;1.13;;;;;;;14.32;58.96;99839.41;10456664;28;20115;-70
2021/10/15 13:26:32;;;;;;;1.70;1.30;;;;;;;14.29;58.34;99847.50;10456353;28;20052;-70
2021/10/15 13:31:38;;;;;;;1.42;1.27;;;;;;;14.08;59.05;99866.16;10457633;28;20041;-69
2021/10/15 13:36:45;;;;;;;1.75;1.30;;;;;;;13.97;59.73;99868.44;10456038;28;20045;-69
2021/10/15 13:42:02;;;;;;;2.80;1.73;;;;;;;14.04;60.53;99869.00;10457120;28;20532;-70
2021/10/15 13:47:12;;;;;;;1.77;1.52;;;;;;;13.76;61.95;99877.38;10455061;28;20518;-69
2021/10/15 13:52:17;;;;;;;2.83;1.65;;;;;;;13.68;62.58;99890.09;10456700;28;20041;-70
2021/10/15 13:57:21;;;;;;;2.60;1.67;;;;;;;13.43;63.88;99888.59;10455247;28;20453;-69
2021/10/15 14:02:29;;;;;;;3.67;2.15;;;;;;;13.26;64.31;99889.38;10455211;28;20049;-69
2021/10/15 14:07:31;;;;;;;2.65;1.77;;;;;;;13.22;64.20;99900.97;10456823;28;20387;-69
2021/10/15 14:12:33;;;;;;;1.58;1.42;;;;;;;13.05;65.41;99906.13;10455743;28;20083;-70
2021/10/15 14:17:35;;;;;;;2.15;1.90;;;;;;;12.91;65.98;99905.88;10455998;28;20397;-69
2021/10/15 14:22:37;;;;;;;2.75;1.70;;;;;;;13.05;65.85;99914.88;10455449;28;20045;-69
2021/10/15 14:27:38;;;;;;;3.10;1.98;;;;;;;12.98;66.37;99917.88;10455649;28;20114;-69
2021/10/15 14:32:42;;;;;;;3.53;2.33;;;;;;;12.89;67.24;99927.06;10455093;28;20483;-69
2021/10/15 14:37:49;;;;;;;4.85;2.45;;;;;;;12.73;70.85;99931.25;10455645;28;20045;-68
2021/10/15 14:42:51;;;;;;;3.80;2.70;;;;;;;12.49;73.58;99943.69;10455208;28;20095;-69
2021/10/15 14:47:53;;;;;;;6.80;3.83;;;;;;;12.12;78.11;99979.41;10459212;28;20049;-70
2021/10/15 14:52:55;;;;;;;3.10;2.80;;;;;;;11.49;79.23;99973.00;10463968;28;20051;-69
2021/10/15 14:57:57;;;;;;;2.35;1.80;;;;;;;11.53;78.65;99985.13;10463249;28;20068;-69
2021/10/15 15:02:58;;;;;;;1.85;1.27;;;;;;;11.09;78.27;99991.06;10462969;28;20053;-69
2021/10/15 15:08:00;;;;;;;1.45;1.02;;;;;;;11.13;78.40;99998.84;10460912;28;20041;-69
2021/10/15 15:13:02;;;;;;;0.85;0.82;;;;;;;10.85;77.91;100005.91;10463869;28;20437;-71
2021/10/15 15:18:03;;;;;;;2.55;1.00;;;;;;;11.05;77.56;100007.00;10463244;28;20044;-70
2021/10/15 15:23:06;;;;;;;1.25;1.05;;;;;;;10.84;77.81;100009.41;10464367;28;20045;-70
2021/10/15 15:28:07;;;;;;;1.88;1.35;;;;;;;10.69;79.13;100022.22;10464218;28;20441;-70
2021/10/15 15:33:10;;;;;;;1.90;1.33;;;;;;;10.66;79.67;100023.16;10462771;28;20045;-70
2021/10/15 15:38:11;;;;;;;2.35;1.83;;;;;;;10.55;81.07;100034.03;10463602;28;20498;-70
2021/10/15 15:43:13;;;;;;;2.25;1.42;;;;;;;10.56;81.60;100045.41;10478520;22;20033;-73
2021/10/15 15:48:16;;;;;;;3.70;2.20;;;;;;;10.66;81.36;100070.50;10462784;28;20486;-74
2021/10/15 15:53:17;;;;;;;1.90;1.13;;;;;;;10.75;79.03;100074.59;10461895;28;20047;-74
2021/10/15 15:58:22;;;;;;;1.20;0.88;;;;;;;10.56;81.30;100075.19;10461903;28;20053;-73
2021/10/15 16:03:24;;;;;;;0.90;0.70;;;;;;;10.59;81.13;100067.22;10461225;28;20107;-74
2021/10/15 16:08:26;;;;;;;0.70;0.70;;;;;;;10.34;81.84;100088.13;10460508;28;20049;-74
2021/10/15 16:13:29;;;;;;;0.80;0.60;;;;;;;10.54;79.33;100090.16;10459110;28;20041;-73
2021/10/15 16:18:32;;;;;;;1.05;0.65;;;;;;;10.44;79.50;100109.72;10461380;28;20040;-73
2021/10/15 16:23:34;;;;;;;1.27;0.70;;;;;;;10.39;78.48;100109.00;10459536;28;20490;-73
2021/10/15 16:28:35;;;;;;;1.98;0.90;;;;;;;10.20;78.99;100119.16;10459784;28;20048;-73
2021/10/15 16:33:37;;;;;;;1.30;0.70;;;;;;;10.02;80.95;100125.78;10458733;28;20045;-74
2021/10/15 16:38:41;;;;;;;1.58;0.80;;;;;;;10.24;79.35;100135.69;10460561;28;20132;-73
2021/10/15 16:43:42;;;;;;;0.65;0.60;;;;;;;10.24;79.43;100138.31;10459381;28;20095;-73
2021/10/15 16:48:45;;;;;;;1.08;0.80;;;;;;;10.11;79.69;100151.81;10460387;28;20552;-73
2021/10/15 16:53:46;;;;;;;1.70;0.70;;;;;;;10.27;78.82;100156.63;10460418;28;20069;-73
2021/10/15 16:58:48;;;;;;;2.55;0.90;;;;;;;10.25;78.96;100167.19;10460864;28;20045;-74
2021/10/15 17:03:50;;;;;;;1.00;0.80;;;;;;;10.14;78.99;100165.75;10458532;28;20079;-73
2021/10/15 17:08:51;;;;;;;0.70;0.70;;;;;;;10.01;78.85;100170.50;10458713;28;20041;-74
2021/10/15 17:13:54;;;;;;;1.80;1.00;;;;;;;9.88;80.03;100184.84;10459023;28;20049;-74
2021/10/15 17:18:55;;;;;;;1.48;1.02;;;;;;;9.88;80.07;100197.97;10458693;28;20494;-73
2021/10/15 17:23:57;;;;;;;1.50;0.90;;;;;;;9.58;81.84;100213.59;10458487;28;20095;-74
2021/10/15 17:28:58;;;;;;;1.00;0.90;;;;;;;9.98;78.95;100218.69;10458875;28;20371;-74
2021/10/15 17:34:00;;;;;;;1.15;0.90;;;;;;;9.73;79.82;100228.97;10458909;28;20540;-74
2021/10/15 17:39:02;;;;;;;1.83;1.15;;;;;;;9.66;79.33;100240.53;10458488;28;20072;-74
2021/10/15 17:44:04;;;;;;;1.15;0.95;;;;;;;9.62;79.79;100238.88;10458390;28;20041;-73
2021/10/15 17:49:06;;;;;;;1.92;1.08;;;;;;;9.35;80.60;100233.41;10458615;28;20071;-74
2021/10/15 17:54:07;;;;;;;1.27;1.15;;;;;;;9.28;80.71;100239.66;10458434;28;20110;-74
2021/10/15 17:59:09;;;;;;;3.15;1.15;;;;;;;9.27;80.37;100253.69;10457427;28;20099;-73
2021/10/15 18:04:10;;;;;;;2.08;1.30;;;;;;;9.22;80.45;100260.81;10457485;28;20041;-75
2021/10/15 18:09:12;;;;;;;1.55;1.20;;;;;;;9.10;80.84;100272.41;10457172;28;20071;-74
2021/10/15 18:14:14;;;;;;;2.03;1.08;;;;;;;8.97;81.78;100264.84;10457896;28;20072;-74
2021/10/15 18:19:16;;;;;;;1.38;1.20;;;;;;;8.89;81.96;100280.75;10457760;28;20055;-74
2021/10/15 18:24:19;;;;;;;1.75;1.30;;;;;;;9.01;81.62;100293.59;10465136;28;20099;-73
2021/10/15 18:29:20;;;;;;;2.30;1.80;;;;;;;8.84;81.89;100295.72;10463494;28;20102;-73
2021/10/15 18:34:22;;;;;;;1.65;1.55;;;;;;;8.78;82.28;100298.47;10463986;28;20041;-74
2021/10/15 18:39:24;;;;;;;2.35;1.48;;;;;;;8.65;83.03;100320.56;10463974;28;20075;-74
2021/10/15 18:44:28;;;;;;;1.98;1.70;;;;;;;8.62;83.60;100321.47;10464255;28;20041;-73
2021/10/15 18:49:32;;;;;;;2.53;1.80;;;;;;;8.53;83.38;100326.91;10461721;28;20143;-74
2021/10/15 18:54:33;;;;;;;3.72;1.92;;;;;;;8.54;83.52;100323.38;10462205;28;20075;-74
2021/10/15 18:59:37;;;;;;;2.17;1.98;;;;;;;8.39;84.17;100334.16;10463144;28;20037;-73
2021/10/15 19:04:41;;;;;;;2.05;1.85;;;;;;;8.38;84.23;100335.91;10462710;28;20124;-73
2021/10/15 19:09:43;;;;;;;3.35;1.92;;;;;;;8.33;84.28;100338.59;10462677;28;20107;-73
2021/10/15 19:14:45;;;;;;;2.28;1.67;;;;;;;8.41;83.54;100343.72;10463985;28;20040;-74
2021/10/15 19:19:47;;;;;;;2.45;1.58;;;;;;;8.35;83.66;100347.25;10461664;28;20120;-73
2021/10/15 19:24:52;;;;;;;3.33;2.08;;;;;;;8.45;83.23;100358.47;10462488;28;20410;-73
2021/10/15 19:29:54;;;;;;;2.17;1.75;;;;;;;8.34;83.57;100365.63;10461287;28;20405;-74
2021/10/15 19:34:55;;;;;;;2.92;2.03;;;;;;;8.28;83.85;100357.91;10459338;28;20044;-74
2021/10/15 19:39:57;;;;;;;3.67;1.77;;;;;;;8.23;83.66;100363.19;10461752;28;20077;-74
2021/10/15 19:45:02;;;;;;;4.22;2.17;;;;;;;8.17;83.68;100354.56;10461739;28;20132;-74
2021/10/15 19:50:06;;;;;;;5.13;2.30;;;;;;;8.21;83.42;100361.50;10461118;28;20055;-74
2021/10/15 19:55:08;;;;;;;2.40;1.77;;;;;;;8.07;83.82;100356.50;10460910;28;20052;-74
2021/10/15 20:00:10;;;;;;;2.33;1.83;;;;;;;8.00;83.64;100363.56;10460810;28;20083;-74
2021/10/15 20:05:14;;;;;;;3.80;2.10;;;;;;;7.78;84.54;100365.66;10460560;28;20182;-73
2021/10/15 20:10:16;;;;;;;3.10;1.83;;;;;;;7.85;84.66;100355.97;10461466;28;20098;-74
2021/10/15 20:15:18;;;;;;;3.42;2.28;;;;;;;7.99;83.69;100354.00;10461160;28;20387;-73
2021/10/15 20:20:19;;;;;;;3.40;2.60;;;;;;;8.09;83.11;100367.78;10461827;28;20494;-73
2021/10/15 20:25:21;;;;;;;2.55;1.80;;;;;;;8.21;82.16;100366.72;10460696;28;20103;-74
2021/10/15 20:30:23;;;;;;;2.42;2.15;;;;;;;8.01;82.87;100359.19;10459961;28;20044;-74
2021/10/15 20:35:24;;;;;;;2.60;2.00;;;;;;;8.04;82.83;100362.63;10460159;28;20068;-74
2021/10/15 20:40:30;;;;;;;4.40;2.50;;;;;;;8.01;83.11;100367.03;10460032;28;20049;-74
2021/10/15 20:45:32;;;;;;;3.80;2.72;;;;;;;8.01;83.21;100378.41;10458515;28;20114;-74
2021/10/15 20:50:35;;;;;;;5.32;2.95;;;;;;;7.99;83.91;100374.94;10458386;28;20505;-73
2021/10/15 20:55:37;;;;;;;6.13;3.55;;;;;;;8.13;83.70;100372.09;10458747;28;20052;-73
2021/10/15 21:00:38;;;;;;;4.15;3.33;;;;;;;8.02;83.65;100376.66;10458013;28;20099;-74
2021/10/15 21:05:40;;;;;;;9.32;4.85;;;;;;;7.92;84.12;100377.66;10460454;28;20391;-74
2021/10/15 21:10:42;;;;;;;5.57;4.18;;;;;;;7.89;84.59;100372.50;10458488;28;20067;-74
2021/10/15 21:15:44;;;;;;;4.13;3.70;;;;;;;8.04;84.42;100374.84;10458963;28;20048;-73
2021/10/15 21:20:46;;;;;;;6.32;3.60;;;;;;;7.93;84.33;100385.50;10456664;28;20486;-73
2021/10/15 21:25:48;;;;;;;7.47;4.10;;;;;;;7.85;85.14;100382.13;10457847;28;20127;-73
2021/10/15 21:30:49;;;;;;;4.13;3.22;;;;;;;7.80;84.84;100395.28;10457680;28;20465;-73
2021/10/15 21:35:51;;;;;;;5.25;4.03;;;;;;;7.78;84.66;100391.81;10457069;28;20056;-74
2021/10/15 21:40:52;;;;;;;4.50;3.28;;;;;;;7.69;85.13;100399.81;10457296;28;20041;-73
2021/10/15 21:45:54;;;;;;;5.47;4.43;;;;;;;7.38;86.79;100412.44;10458440;28;20057;-76
2021/10/15 21:50:56;;;;;;;4.82;4.05;;;;;;;7.56;85.19;100416.56;10456414;28;20083;-76
2021/10/15 21:55:57;;;;;;;4.80;3.40;;;;;;;7.87;83.86;100427.47;10458092;28;20426;-75
2021/10/15 22:01:02;;;;;;;4.10;3.67;;;;;;;7.69;84.11;100418.13;10466041;28;20486;-77
2021/10/15 22:06:04;;;;;;;8.07;4.45;;;;;;;7.30;85.63;100424.72;10464045;28;20507;-77
2021/10/15 22:11:06;;;;;;;4.60;4.20;;;;;;;7.26;86.45;100428.25;10466040;28;20051;-77
2021/10/15 22:16:08;;;;;;;4.40;3.92;;;;;;;7.01;86.76;100430.31;10466404;28;20041;-77
2021/10/15 22:21:09;;;;;;;9.18;3.63;;;;;;;6.82;87.55;100429.66;10466657;28;20041;-77
2021/10/15 22:26:11;;;;;;;6.55;3.80;;;;;;;6.69;88.79;100426.28;10466156;28;20099;-78
2021/10/15 22:31:13;;;;;;;5.82;4.30;;;;;;;6.63;88.86;100428.94;10463082;28;20048;-76
2021/10/15 22:36:15;;;;;;;5.82;4.40;;;;;;;6.62;88.24;100431.56;10463579;28;20049;-76
2021/10/15 22:41:17;;;;;;;6.65;4.28;;;;;;;6.36;89.77;100424.81;10464026;28;20391;-76
2021/10/15 22:46:18;;;;;;;6.13;4.65;;;;;;;6.32;89.45;100429.19;10463090;28;20514;-76
2021/10/15 22:51:20;;;;;;;4.97;3.60;;;;;;;6.26;89.72;100424.03;10463422;28;20048;-77
2021/10/15 22:56:21;;;;;;;5.43;4.75;;;;;;;6.08;90.28;100437.25;10462216;28;20047;-76
2021/10/15 23:01:26;;;;;;;6.32;4.95;;;;;;;5.99;91.26;100437.31;10463335;28;20037;-76
2021/10/15 23:06:27;;;;;;;9.10;5.47;;;;;;;6.04;91.12;100441.59;10463154;28;20485;-76
2021/10/15 23:11:29;;;;;;;7.35;4.63;;;;;;;5.98;90.70;100441.66;10462859;28;20099;-77
2021/10/15 23:16:31;;;;;;;8.05;6.63;;;;;;;5.94;91.17;100450.38;10461378;28;20068;-76
2021/10/15 23:21:32;;;;;;;6.38;5.40;;;;;;;6.02;90.55;100453.81;10462993;28;20037;-77
2021/10/15 23:26:34;;;;;;;6.05;5.25;;;;;;;5.83;91.76;100446.91;10462453;28;20053;-76
2021/10/15 23:31:35;;;;;;;6.47;5.03;;;;;;;5.80;92.21;100463.47;10461058;28;20509;-76
2021/10/15 23:36:37;;;;;;;11.68;4.75;;;;;;;5.76;92.48;100460.91;10460051;28;20044;-77